sensor_id;sensor_type;location;lat;lon;timestamp;temperature;humidity
61004;DHT22;46889;37.310;13.582;2022-12-16T00:02:03;19.20;99.90
61004;DHT22;46889;37.310;13.582;2022-12-16T00:04:29;19.10;99.90
61004;DHT22;46889;37.310;13.582;2022-12-16T00:06:55;19.20;99.90
61004;DHT22;46889;37.310;13.582;2022-12-16T00:09:23;19.10;99.90
61004;DHT22;46889;37.310;13.582;2022-12-16T00:11:49;19.10;99.90
61004;DHT22;46889;37.310;13.582;2022-12-16T00:14:18;19.20;99.90
61004;DHT22;46889;37.310;13.582;2022-12-16T00:16:44;19.30;99.90
61004;DHT22;46889;37.310;13.582;2022-12-16T00:19:10;19.20;99.90
61004;DHT22;46889;37.310;13.582;2022-12-16T00:21:37;19.30;99.90
61004;DHT22;46889;37.310;13.582;2022-12-16T00:24:03;19.30;99.90
61004;DHT22;46889;37.310;13.582;2022-12-16T00:26:30;19.30;99.90
61004;DHT22;46889;37.310;13.582;2022-12-16T00:28:56;19.40;99.90
61004;DHT22;46889;37.310;13.582;2022-12-16T00:31:23;19.40;99.90
61004;DHT22;46889;37.310;13.582;2022-12-16T00:33:49;19.50;99.90
61004;DHT22;46889;37.310;13.582;2022-12-16T00:36:17;19.50;99.90
61004;DHT22;46889;37.310;13.582;2022-12-16T00:38:44;19.50;99.90
61004;DHT22;46889;37.310;13.582;2022-12-16T00:41:11;19.50;99.90
61004;DHT22;46889;37.310;13.582;2022-12-16T00:43:37;19.50;99.90
61004;DHT22;46889;37.310;13.582;2022-12-16T00:46:04;19.50;99.90
61004;DHT22;46889;37.310;13.582;2022-12-16T00:48:30;19.40;99.90
61004;DHT22;46889;37.310;13.582;2022-12-16T00:50:56;19.50;99.90
61004;DHT22;46889;37.310;13.582;2022-12-16T00:53:23;19.40;99.90
61004;DHT22;46889;37.310;13.582;2022-12-16T00:56:01;19.60;99.90
61004;DHT22;46889;37.310;13.582;2022-12-16T00:58:27;19.60;99.90
61004;DHT22;46889;37.310;13.582;2022-12-16T01:00:53;19.60;99.90
61004;DHT22;46889;37.310;13.582;2022-12-16T01:03:19;19.60;99.90
61004;DHT22;46889;37.310;13.582;2022-12-16T01:05:45;19.50;99.90
61004;DHT22;46889;37.310;13.582;2022-12-16T01:08:11;19.50;99.90
61004;DHT22;46889;37.310;13.582;2022-12-16T01:10:37;19.40;99.90
61004;DHT22;46889;37.310;13.582;2022-12-16T01:13:03;19.40;99.90
61004;DHT22;46889;37.310;13.582;2022-12-16T01:15:29;19.40;99.90
61004;DHT22;46889;37.310;13.582;2022-12-16T01:17:55;19.40;99.90
61004;DHT22;46889;37.310;13.582;2022-12-16T01:20:21;19.40;99.90
61004;DHT22;46889;37.310;13.582;2022-12-16T01:22:59;19.40;99.90
61004;DHT22;46889;37.310;13.582;2022-12-16T01:25:25;19.30;99.90
61004;DHT22;46889;37.310;13.582;2022-12-16T01:27:51;19.40;99.90
61004;DHT22;46889;37.310;13.582;2022-12-16T01:30:17;19.40;99.90
61004;DHT22;46889;37.310;13.582;2022-12-16T01:32:43;19.40;99.90
61004;DHT22;46889;37.310;13.582;2022-12-16T01:35:14;19.40;99.90
61004;DHT22;46889;37.310;13.582;2022-12-16T01:37:40;19.40;99.90
61004;DHT22;46889;37.310;13.582;2022-12-16T01:40:16;19.40;99.90
61004;DHT22;46889;37.310;13.582;2022-12-16T01:42:43;19.40;99.90
61004;DHT22;46889;37.310;13.582;2022-12-16T01:48:00;19.40;99.90
61004;DHT22;46889;37.310;13.582;2022-12-16T01:50:28;19.50;99.90
61004;DHT22;46889;37.310;13.582;2022-12-16T01:52:58;19.50;99.90
61004;DHT22;46889;37.310;13.582;2022-12-16T01:55:29;19.40;99.90
61004;DHT22;46889;37.310;13.582;2022-12-16T01:58:01;19.50;99.90
61004;DHT22;46889;37.310;13.582;2022-12-16T02:00:31;19.50;99.90
61004;DHT22;46889;37.310;13.582;2022-12-16T02:02:57;19.40;99.90
61004;DHT22;46889;37.310;13.582;2022-12-16T02:05:24;19.40;99.90
61004;DHT22;46889;37.310;13.582;2022-12-16T02:07:58;19.30;99.90
61004;DHT22;46889;37.310;13.582;2022-12-16T02:10:48;19.40;99.90
61004;DHT22;46889;37.310;13.582;2022-12-16T02:16:38;19.30;99.90
61004;DHT22;46889;37.310;13.582;2022-12-16T02:19:35;19.30;99.90
61004;DHT22;46889;37.310;13.582;2022-12-16T02:28:05;19.30;99.90
61004;DHT22;46889;37.310;13.582;2022-12-16T02:31:03;19.20;99.90
61004;DHT22;46889;37.310;13.582;2022-12-16T02:38:47;19.10;99.90
61004;DHT22;46889;37.310;13.582;2022-12-16T02:42:35;19.00;99.90
61004;DHT22;46889;37.310;13.582;2022-12-16T02:47:04;18.90;99.90
61004;DHT22;46889;37.310;13.582;2022-12-16T02:51:57;18.90;99.90
61004;DHT22;46889;37.310;13.582;2022-12-16T02:54:24;18.90;99.90
61004;DHT22;46889;37.310;13.582;2022-12-16T02:57:09;18.90;99.90
61004;DHT22;46889;37.310;13.582;2022-12-16T03:02:36;19.00;99.90
61004;DHT22;46889;37.310;13.582;2022-12-16T03:07:42;19.00;99.90
61004;DHT22;46889;37.310;13.582;2022-12-16T03:10:13;18.90;99.90
61004;DHT22;46889;37.310;13.582;2022-12-16T03:12:41;18.80;99.90
61004;DHT22;46889;37.310;13.582;2022-12-16T03:15:10;18.70;99.90
61004;DHT22;46889;37.310;13.582;2022-12-16T03:17:38;18.70;99.90
61004;DHT22;46889;37.310;13.582;2022-12-16T03:20:34;18.60;99.90
61004;DHT22;46889;37.310;13.582;2022-12-16T03:23:15;18.60;99.90
61004;DHT22;46889;37.310;13.582;2022-12-16T03:25:44;18.50;99.90
61004;DHT22;46889;37.310;13.582;2022-12-16T03:28:27;18.50;99.90
61004;DHT22;46889;37.310;13.582;2022-12-16T03:36:28;18.40;99.90
61004;DHT22;46889;37.310;13.582;2022-12-16T03:38:59;18.40;99.90
61004;DHT22;46889;37.310;13.582;2022-12-16T03:41:27;18.30;99.90
61004;DHT22;46889;37.310;13.582;2022-12-16T03:44:01;18.40;99.90
61004;DHT22;46889;37.310;13.582;2022-12-16T03:46:27;18.30;99.90
61004;DHT22;46889;37.310;13.582;2022-12-16T03:48:54;18.30;99.90
61004;DHT22;46889;37.310;13.582;2022-12-16T03:51:20;18.20;99.90
61004;DHT22;46889;37.310;13.582;2022-12-16T03:53:46;18.20;99.90
61004;DHT22;46889;37.310;13.582;2022-12-16T03:56:12;18.20;99.90
61004;DHT22;46889;37.310;13.582;2022-12-16T03:58:39;18.10;99.90
61004;DHT22;46889;37.310;13.582;2022-12-16T04:01:10;18.10;99.90
61004;DHT22;46889;37.310;13.582;2022-12-16T04:03:40;18.10;99.90
61004;DHT22;46889;37.310;13.582;2022-12-16T04:06:07;18.00;99.90
61004;DHT22;46889;37.310;13.582;2022-12-16T04:08:33;18.00;99.90
61004;DHT22;46889;37.310;13.582;2022-12-16T04:10:59;18.00;99.90
61004;DHT22;46889;37.310;13.582;2022-12-16T04:13:44;18.00;99.90
61004;DHT22;46889;37.310;13.582;2022-12-16T04:16:29;18.00;99.90
61004;DHT22;46889;37.310;13.582;2022-12-16T04:19:28;18.00;99.90
61004;DHT22;46889;37.310;13.582;2022-12-16T04:22:21;18.00;99.90
61004;DHT22;46889;37.310;13.582;2022-12-16T04:25:14;17.90;99.90
61004;DHT22;46889;37.310;13.582;2022-12-16T04:27:41;18.00;99.90
61004;DHT22;46889;37.310;13.582;2022-12-16T04:30:16;17.90;99.90
61004;DHT22;46889;37.310;13.582;2022-12-16T04:32:56;17.90;99.90
61004;DHT22;46889;37.310;13.582;2022-12-16T04:35:41;17.90;99.90
61004;DHT22;46889;37.310;13.582;2022-12-16T04:38:26;17.90;99.90
61004;DHT22;46889;37.310;13.582;2022-12-16T04:41:11;17.90;99.90
61004;DHT22;46889;37.310;13.582;2022-12-16T04:43:55;17.90;99.90
61004;DHT22;46889;37.310;13.582;2022-12-16T04:46:39;17.80;99.90
61004;DHT22;46889;37.310;13.582;2022-12-16T04:49:24;17.90;99.90
61004;DHT22;46889;37.310;13.582;2022-12-16T04:52:09;17.90;99.90
61004;DHT22;46889;37.310;13.582;2022-12-16T04:54:53;17.90;99.90
61004;DHT22;46889;37.310;13.582;2022-12-16T04:57:38;17.80;99.90
61004;DHT22;46889;37.310;13.582;2022-12-16T05:00:22;17.80;99.90
61004;DHT22;46889;37.310;13.582;2022-12-16T05:03:07;17.80;99.90
61004;DHT22;46889;37.310;13.582;2022-12-16T05:05:51;17.80;99.90
61004;DHT22;46889;37.310;13.582;2022-12-16T05:08:36;17.80;99.90
61004;DHT22;46889;37.310;13.582;2022-12-16T05:11:20;17.80;99.90
61004;DHT22;46889;37.310;13.582;2022-12-16T05:14:29;17.80;99.90
61004;DHT22;46889;37.310;13.582;2022-12-16T05:17:14;17.80;99.90
61004;DHT22;46889;37.310;13.582;2022-12-16T05:19:59;17.80;99.90
61004;DHT22;46889;37.310;13.582;2022-12-16T05:22:43;17.80;99.90
61004;DHT22;46889;37.310;13.582;2022-12-16T05:25:28;17.80;99.90
61004;DHT22;46889;37.310;13.582;2022-12-16T05:28:12;17.80;99.90
61004;DHT22;46889;37.310;13.582;2022-12-16T05:30:57;17.70;99.90
61004;DHT22;46889;37.310;13.582;2022-12-16T05:36:59;17.70;99.90
61004;DHT22;46889;37.310;13.582;2022-12-16T05:39:44;17.70;99.90
61004;DHT22;46889;37.310;13.582;2022-12-16T05:42:29;17.70;99.90
61004;DHT22;46889;37.310;13.582;2022-12-16T05:45:13;17.70;99.90
61004;DHT22;46889;37.310;13.582;2022-12-16T05:47:58;17.70;99.90
61004;DHT22;46889;37.310;13.582;2022-12-16T05:50:42;17.70;99.90
61004;DHT22;46889;37.310;13.582;2022-12-16T05:53:34;17.70;99.90
61004;DHT22;46889;37.310;13.582;2022-12-16T05:56:19;17.70;99.90
61004;DHT22;46889;37.310;13.582;2022-12-16T05:59:20;17.70;99.90
61004;DHT22;46889;37.310;13.582;2022-12-16T06:02:07;17.70;99.90
61004;DHT22;46889;37.310;13.582;2022-12-16T06:04:53;17.70;99.90
61004;DHT22;46889;37.310;13.582;2022-12-16T06:07:37;17.60;99.90
61004;DHT22;46889;37.310;13.582;2022-12-16T06:10:22;17.60;99.90
61004;DHT22;46889;37.310;13.582;2022-12-16T06:13:06;17.70;99.90
61004;DHT22;46889;37.310;13.582;2022-12-16T06:15:52;17.70;99.90
61004;DHT22;46889;37.310;13.582;2022-12-16T06:18:36;17.70;99.90
61004;DHT22;46889;37.310;13.582;2022-12-16T06:21:21;17.70;99.90
61004;DHT22;46889;37.310;13.582;2022-12-16T06:24:07;17.70;99.90
61004;DHT22;46889;37.310;13.582;2022-12-16T06:26:53;17.70;99.90
61004;DHT22;46889;37.310;13.582;2022-12-16T06:29:40;17.70;99.90
61004;DHT22;46889;37.310;13.582;2022-12-16T06:32:24;17.80;99.90
61004;DHT22;46889;37.310;13.582;2022-12-16T06:35:09;17.80;99.90
61004;DHT22;46889;37.310;13.582;2022-12-16T06:37:53;17.80;99.90
61004;DHT22;46889;37.310;13.582;2022-12-16T06:40:40;18.00;99.90
61004;DHT22;46889;37.310;13.582;2022-12-16T06:43:24;18.00;99.90
61004;DHT22;46889;37.310;13.582;2022-12-16T06:46:08;18.20;99.90
61004;DHT22;46889;37.310;13.582;2022-12-16T06:48:54;18.50;99.90
61004;DHT22;46889;37.310;13.582;2022-12-16T06:51:39;18.50;99.90
61004;DHT22;46889;37.310;13.582;2022-12-16T06:54:23;18.50;99.90
61004;DHT22;46889;37.310;13.582;2022-12-16T06:57:08;18.70;99.90
61004;DHT22;46889;37.310;13.582;2022-12-16T06:59:52;19.00;99.90
61004;DHT22;46889;37.310;13.582;2022-12-16T07:02:36;19.10;99.90
61004;DHT22;46889;37.310;13.582;2022-12-16T07:05:20;19.10;99.90
61004;DHT22;46889;37.310;13.582;2022-12-16T07:08:07;19.20;99.90
61004;DHT22;46889;37.310;13.582;2022-12-16T07:10:52;19.50;99.90
61004;DHT22;46889;37.310;13.582;2022-12-16T07:13:36;19.60;99.90
61004;DHT22;46889;37.310;13.582;2022-12-16T07:16:20;19.50;99.90
61004;DHT22;46889;37.310;13.582;2022-12-16T07:19:05;19.60;99.90
61004;DHT22;46889;37.310;13.582;2022-12-16T07:21:49;19.50;99.90
61004;DHT22;46889;37.310;13.582;2022-12-16T07:24:33;19.40;99.90
61004;DHT22;46889;37.310;13.582;2022-12-16T07:27:18;19.30;99.90
61004;DHT22;46889;37.310;13.582;2022-12-16T07:30:04;19.50;99.90
61004;DHT22;46889;37.310;13.582;2022-12-16T07:32:50;19.60;99.90
61004;DHT22;46889;37.310;13.582;2022-12-16T07:35:34;20.10;99.90
61004;DHT22;46889;37.310;13.582;2022-12-16T07:38:19;20.40;99.90
61004;DHT22;46889;37.310;13.582;2022-12-16T07:41:03;20.40;99.90
61004;DHT22;46889;37.310;13.582;2022-12-16T07:43:47;20.40;99.90
61004;DHT22;46889;37.310;13.582;2022-12-16T07:46:31;20.40;99.90
61004;DHT22;46889;37.310;13.582;2022-12-16T07:49:16;20.40;99.90
61004;DHT22;46889;37.310;13.582;2022-12-16T07:52:01;20.10;99.90
61004;DHT22;46889;37.310;13.582;2022-12-16T07:54:45;19.80;99.90
61004;DHT22;46889;37.310;13.582;2022-12-16T07:57:29;19.70;99.90
61004;DHT22;46889;37.310;13.582;2022-12-16T08:00:14;19.50;99.90
61004;DHT22;46889;37.310;13.582;2022-12-16T08:02:58;19.40;99.90
61004;DHT22;46889;37.310;13.582;2022-12-16T08:05:42;19.40;99.90
61004;DHT22;46889;37.310;13.582;2022-12-16T08:08:27;19.40;99.90
61004;DHT22;46889;37.310;13.582;2022-12-16T08:11:12;19.50;99.90
61004;DHT22;46889;37.310;13.582;2022-12-16T08:13:56;19.50;99.90
61004;DHT22;46889;37.310;13.582;2022-12-16T08:16:40;19.60;99.90
61004;DHT22;46889;37.310;13.582;2022-12-16T08:19:29;19.70;99.90
61004;DHT22;46889;37.310;13.582;2022-12-16T08:22:13;19.80;99.90
61004;DHT22;46889;37.310;13.582;2022-12-16T08:25:16;19.80;99.90
61004;DHT22;46889;37.310;13.582;2022-12-16T08:28:01;19.90;99.90
61004;DHT22;46889;37.310;13.582;2022-12-16T08:30:49;20.00;99.90
61004;DHT22;46889;37.310;13.582;2022-12-16T08:33:34;20.10;99.90
61004;DHT22;46889;37.310;13.582;2022-12-16T08:36:18;20.10;99.90
61004;DHT22;46889;37.310;13.582;2022-12-16T08:39:03;20.20;99.90
61004;DHT22;46889;37.310;13.582;2022-12-16T08:41:50;20.20;99.90
61004;DHT22;46889;37.310;13.582;2022-12-16T08:44:34;20.30;99.90
61004;DHT22;46889;37.310;13.582;2022-12-16T08:47:19;20.30;99.90
61004;DHT22;46889;37.310;13.582;2022-12-16T08:50:07;20.20;99.90
61004;DHT22;46889;37.310;13.582;2022-12-16T08:52:52;20.30;99.90
61004;DHT22;46889;37.310;13.582;2022-12-16T08:55:36;20.30;99.90
61004;DHT22;46889;37.310;13.582;2022-12-16T08:58:21;20.40;99.90
61004;DHT22;46889;37.310;13.582;2022-12-16T09:01:05;20.50;99.90
61004;DHT22;46889;37.310;13.582;2022-12-16T09:03:49;20.40;99.90
61004;DHT22;46889;37.310;13.582;2022-12-16T09:06:34;20.50;99.90
61004;DHT22;46889;37.310;13.582;2022-12-16T09:09:18;20.30;99.90
61004;DHT22;46889;37.310;13.582;2022-12-16T09:12:02;20.50;99.90
61004;DHT22;46889;37.310;13.582;2022-12-16T09:14:47;20.60;99.90
61004;DHT22;46889;37.310;13.582;2022-12-16T09:17:32;21.00;99.90
61004;DHT22;46889;37.310;13.582;2022-12-16T09:20:17;21.10;99.90
61004;DHT22;46889;37.310;13.582;2022-12-16T09:23:04;21.10;99.90
61004;DHT22;46889;37.310;13.582;2022-12-16T09:25:48;21.20;99.90
61004;DHT22;46889;37.310;13.582;2022-12-16T09:28:32;21.00;99.90
61004;DHT22;46889;37.310;13.582;2022-12-16T09:31:17;21.00;99.90
61004;DHT22;46889;37.310;13.582;2022-12-16T09:34:01;21.30;99.90
61004;DHT22;46889;37.310;13.582;2022-12-16T09:36:46;21.70;99.90
61004;DHT22;46889;37.310;13.582;2022-12-16T09:39:30;21.70;99.90
61004;DHT22;46889;37.310;13.582;2022-12-16T09:42:53;21.60;99.90
61004;DHT22;46889;37.310;13.582;2022-12-16T09:51:47;21.70;99.90
61004;DHT22;46889;37.310;13.582;2022-12-16T09:54:34;21.80;99.90
61004;DHT22;46889;37.310;13.582;2022-12-16T09:57:20;22.00;99.90
61004;DHT22;46889;37.310;13.582;2022-12-16T10:00:20;21.80;99.90
61004;DHT22;46889;37.310;13.582;2022-12-16T10:03:20;21.60;99.90
61004;DHT22;46889;37.310;13.582;2022-12-16T10:21:51;22.80;99.90
61004;DHT22;46889;37.310;13.582;2022-12-16T10:28:47;23.00;99.90
61004;DHT22;46889;37.310;13.582;2022-12-16T10:31:33;22.60;99.90
61004;DHT22;46889;37.310;13.582;2022-12-16T10:34:27;22.50;99.90
61004;DHT22;46889;37.310;13.582;2022-12-16T10:37:19;22.90;99.90
61004;DHT22;46889;37.310;13.582;2022-12-16T10:40:14;23.00;99.90
61004;DHT22;46889;37.310;13.582;2022-12-16T10:46:06;23.00;99.90
61004;DHT22;46889;37.310;13.582;2022-12-16T10:48:53;23.20;99.90
61004;DHT22;46889;37.310;13.582;2022-12-16T10:51:37;23.00;99.90
61004;DHT22;46889;37.310;13.582;2022-12-16T10:54:45;23.00;99.90
61004;DHT22;46889;37.310;13.582;2022-12-16T11:00:48;22.90;99.90
61004;DHT22;46889;37.310;13.582;2022-12-16T11:03:34;22.70;99.90
61004;DHT22;46889;37.310;13.582;2022-12-16T11:06:22;22.90;99.90
61004;DHT22;46889;37.310;13.582;2022-12-16T11:09:21;23.00;99.90
61004;DHT22;46889;37.310;13.582;2022-12-16T11:14:57;23.40;99.90
61004;DHT22;46889;37.310;13.582;2022-12-16T11:18:01;23.30;99.90
61004;DHT22;46889;37.310;13.582;2022-12-16T11:21:13;23.40;99.90
61004;DHT22;46889;37.310;13.582;2022-12-16T11:26:59;23.50;99.90
61004;DHT22;46889;37.310;13.582;2022-12-16T11:29:59;23.30;99.90
61004;DHT22;46889;37.310;13.582;2022-12-16T11:32:53;23.50;99.90
61004;DHT22;46889;37.310;13.582;2022-12-16T11:35:45;23.30;99.90
61004;DHT22;46889;37.310;13.582;2022-12-16T11:38:47;23.40;99.90
61004;DHT22;46889;37.310;13.582;2022-12-16T11:41:37;23.70;99.90
61004;DHT22;46889;37.310;13.582;2022-12-16T11:44:35;23.60;99.90
61004;DHT22;46889;37.310;13.582;2022-12-16T11:50:18;23.80;99.90
61004;DHT22;46889;37.310;13.582;2022-12-16T11:53:04;23.90;99.90
61004;DHT22;46889;37.310;13.582;2022-12-16T11:55:52;24.10;99.90
61004;DHT22;46889;37.310;13.582;2022-12-16T11:58:50;24.20;99.90
61004;DHT22;46889;37.310;13.582;2022-12-16T12:01:59;24.30;99.90
61004;DHT22;46889;37.310;13.582;2022-12-16T12:05:01;24.50;99.90
61004;DHT22;46889;37.310;13.582;2022-12-16T12:07:54;24.60;99.90
61004;DHT22;46889;37.310;13.582;2022-12-16T12:11:06;24.60;99.90
61004;DHT22;46889;37.310;13.582;2022-12-16T12:14:15;24.50;99.90
61004;DHT22;46889;37.310;13.582;2022-12-16T12:17:21;24.40;99.90
61004;DHT22;46889;37.310;13.582;2022-12-16T12:23:13;24.40;99.90
61004;DHT22;46889;37.310;13.582;2022-12-16T12:26:12;24.30;99.90
61004;DHT22;46889;37.310;13.582;2022-12-16T12:32:43;24.30;99.90
61004;DHT22;46889;37.310;13.582;2022-12-16T12:39:36;24.10;99.90
61004;DHT22;46889;37.310;13.582;2022-12-16T12:48:26;23.80;99.90
61004;DHT22;46889;37.310;13.582;2022-12-16T12:51:32;23.30;99.90
61004;DHT22;46889;37.310;13.582;2022-12-16T12:57:18;23.30;99.90
61004;DHT22;46889;37.310;13.582;2022-12-16T13:00:19;23.40;99.90
61004;DHT22;46889;37.310;13.582;2022-12-16T13:06:06;23.50;99.90
61004;DHT22;46889;37.310;13.582;2022-12-16T13:11:36;23.50;99.90
61004;DHT22;46889;37.310;13.582;2022-12-16T13:18:32;23.40;99.90
61004;DHT22;46889;37.310;13.582;2022-12-16T13:20:58;23.40;99.90
61004;DHT22;46889;37.310;13.582;2022-12-16T13:23:43;23.40;99.90
61004;DHT22;46889;37.310;13.582;2022-12-16T13:26:31;23.50;99.90
61004;DHT22;46889;37.310;13.582;2022-12-16T13:29:28;23.70;99.90
61004;DHT22;46889;37.310;13.582;2022-12-16T13:32:22;23.90;99.90
61004;DHT22;46889;37.310;13.582;2022-12-16T13:38:49;23.60;99.90
61004;DHT22;46889;37.310;13.582;2022-12-16T13:41:47;23.50;99.90
61004;DHT22;46889;37.310;13.582;2022-12-16T13:50:38;23.50;99.90
61004;DHT22;46889;37.310;13.582;2022-12-16T13:53:25;23.30;99.90
61004;DHT22;46889;37.310;13.582;2022-12-16T13:56:14;23.30;99.90
61004;DHT22;46889;37.310;13.582;2022-12-16T13:59:10;23.20;99.90
61004;DHT22;46889;37.310;13.582;2022-12-16T14:02:02;23.20;99.90
61004;DHT22;46889;37.310;13.582;2022-12-16T14:05:02;23.10;99.90
61004;DHT22;46889;37.310;13.582;2022-12-16T14:07:47;23.00;99.90
61004;DHT22;46889;37.310;13.582;2022-12-16T14:10:34;23.10;99.90
61004;DHT22;46889;37.310;13.582;2022-12-16T14:16:32;23.00;99.90
61004;DHT22;46889;37.310;13.582;2022-12-16T14:22:58;23.00;99.90
61004;DHT22;46889;37.310;13.582;2022-12-16T14:25:44;22.90;99.90
61004;DHT22;46889;37.310;13.582;2022-12-16T14:28:34;22.80;99.90
61004;DHT22;46889;37.310;13.582;2022-12-16T14:31:33;22.70;99.90
61004;DHT22;46889;37.310;13.582;2022-12-16T14:34:31;22.70;99.90
61004;DHT22;46889;37.310;13.582;2022-12-16T14:37:23;22.60;99.90
61004;DHT22;46889;37.310;13.582;2022-12-16T14:40:27;22.50;99.90
61004;DHT22;46889;37.310;13.582;2022-12-16T14:43:22;22.30;99.90
61004;DHT22;46889;37.310;13.582;2022-12-16T14:46:27;22.20;99.90
61004;DHT22;46889;37.310;13.582;2022-12-16T14:49:22;22.00;99.90
61004;DHT22;46889;37.310;13.582;2022-12-16T14:52:24;21.80;99.90
61004;DHT22;46889;37.310;13.582;2022-12-16T14:55:18;21.60;99.90
61004;DHT22;46889;37.310;13.582;2022-12-16T15:00:49;21.40;99.90
61004;DHT22;46889;37.310;13.582;2022-12-16T15:03:40;21.10;99.90
61004;DHT22;46889;37.310;13.582;2022-12-16T15:07:00;20.80;99.90
61004;DHT22;46889;37.310;13.582;2022-12-16T15:09:50;20.80;99.90
61004;DHT22;46889;37.310;13.582;2022-12-16T15:12:40;20.80;99.90
61004;DHT22;46889;37.310;13.582;2022-12-16T15:15:37;20.90;99.90
61004;DHT22;46889;37.310;13.582;2022-12-16T15:18:31;21.00;99.90
61004;DHT22;46889;37.310;13.582;2022-12-16T15:21:16;21.10;99.90
61004;DHT22;46889;37.310;13.582;2022-12-16T15:24:06;21.10;99.90
61004;DHT22;46889;37.310;13.582;2022-12-16T15:30:02;20.90;99.90
61004;DHT22;46889;37.310;13.582;2022-12-16T15:32:52;20.90;99.90
61004;DHT22;46889;37.310;13.582;2022-12-16T15:35:37;20.80;99.90
61004;DHT22;46889;37.310;13.582;2022-12-16T15:38:59;20.70;99.90
61004;DHT22;46889;37.310;13.582;2022-12-16T15:41:46;20.70;99.90
61004;DHT22;46889;37.310;13.582;2022-12-16T15:44:31;20.60;99.90
61004;DHT22;46889;37.310;13.582;2022-12-16T15:47:47;20.50;99.90
61004;DHT22;46889;37.310;13.582;2022-12-16T15:50:32;20.40;99.90
61004;DHT22;46889;37.310;13.582;2022-12-16T15:53:29;20.20;99.90
61004;DHT22;46889;37.310;13.582;2022-12-16T15:56:31;20.00;99.90
61004;DHT22;46889;37.310;13.582;2022-12-16T15:59:28;19.90;99.90
61004;DHT22;46889;37.310;13.582;2022-12-16T16:02:25;19.80;99.90
61004;DHT22;46889;37.310;13.582;2022-12-16T16:05:15;19.60;99.90
61004;DHT22;46889;37.310;13.582;2022-12-16T16:08:01;19.60;99.90
61004;DHT22;46889;37.310;13.582;2022-12-16T16:10:46;19.50;99.90
61004;DHT22;46889;37.310;13.582;2022-12-16T16:13:31;19.50;99.90
61004;DHT22;46889;37.310;13.582;2022-12-16T16:16:16;19.50;99.90
61004;DHT22;46889;37.310;13.582;2022-12-16T16:19:01;19.50;99.90
61004;DHT22;46889;37.310;13.582;2022-12-16T16:21:46;19.50;99.90
61004;DHT22;46889;37.310;13.582;2022-12-16T16:24:30;19.40;99.90
61004;DHT22;46889;37.310;13.582;2022-12-16T16:27:14;19.30;99.90
61004;DHT22;46889;37.310;13.582;2022-12-16T16:29:59;19.30;99.90
61004;DHT22;46889;37.310;13.582;2022-12-16T16:32:44;19.20;99.90
61004;DHT22;46889;37.310;13.582;2022-12-16T16:35:48;19.20;99.90
61004;DHT22;46889;37.310;13.582;2022-12-16T16:38:35;19.10;99.90
61004;DHT22;46889;37.310;13.582;2022-12-16T16:41:19;19.00;99.90
61004;DHT22;46889;37.310;13.582;2022-12-16T16:44:28;18.90;99.90
61004;DHT22;46889;37.310;13.582;2022-12-16T16:47:16;18.90;99.90
61004;DHT22;46889;37.310;13.582;2022-12-16T16:50:01;18.80;99.90
61004;DHT22;46889;37.310;13.582;2022-12-16T16:52:47;18.80;99.90
61004;DHT22;46889;37.310;13.582;2022-12-16T16:58:53;18.70;99.90
61004;DHT22;46889;37.310;13.582;2022-12-16T17:01:37;18.50;99.90
61004;DHT22;46889;37.310;13.582;2022-12-16T17:04:22;18.50;99.90
61004;DHT22;46889;37.310;13.582;2022-12-16T17:07:07;18.40;99.90
61004;DHT22;46889;37.310;13.582;2022-12-16T17:09:51;18.30;99.90
61004;DHT22;46889;37.310;13.582;2022-12-16T17:12:40;18.30;99.90
61004;DHT22;46889;37.310;13.582;2022-12-16T17:15:31;18.40;99.90
61004;DHT22;46889;37.310;13.582;2022-12-16T17:18:16;18.40;99.90
61004;DHT22;46889;37.310;13.582;2022-12-16T17:21:05;18.40;99.90
61004;DHT22;46889;37.310;13.582;2022-12-16T17:23:49;18.20;99.90
61004;DHT22;46889;37.310;13.582;2022-12-16T17:26:35;18.10;99.90
61004;DHT22;46889;37.310;13.582;2022-12-16T17:29:24;18.10;99.90
61004;DHT22;46889;37.310;13.582;2022-12-16T17:32:10;18.10;99.90
61004;DHT22;46889;37.310;13.582;2022-12-16T17:34:55;18.10;99.90
61004;DHT22;46889;37.310;13.582;2022-12-16T17:37:39;18.10;99.90
61004;DHT22;46889;37.310;13.582;2022-12-16T17:40:25;18.10;99.90
61004;DHT22;46889;37.310;13.582;2022-12-16T17:43:10;18.10;99.90
61004;DHT22;46889;37.310;13.582;2022-12-16T17:46:06;18.10;99.90
61004;DHT22;46889;37.310;13.582;2022-12-16T17:48:55;18.10;99.90
61004;DHT22;46889;37.310;13.582;2022-12-16T17:51:40;18.10;99.90
61004;DHT22;46889;37.310;13.582;2022-12-16T17:54:25;18.10;99.90
61004;DHT22;46889;37.310;13.582;2022-12-16T17:57:10;18.10;99.90
61004;DHT22;46889;37.310;13.582;2022-12-16T17:59:54;18.10;99.90
61004;DHT22;46889;37.310;13.582;2022-12-16T18:02:39;18.00;99.90
61004;DHT22;46889;37.310;13.582;2022-12-16T18:05:23;18.00;99.90
61004;DHT22;46889;37.310;13.582;2022-12-16T18:08:08;18.10;99.90
61004;DHT22;46889;37.310;13.582;2022-12-16T18:10:54;18.10;99.90
61004;DHT22;46889;37.310;13.582;2022-12-16T18:13:39;18.10;99.90
61004;DHT22;46889;37.310;13.582;2022-12-16T18:16:23;18.10;99.90
61004;DHT22;46889;37.310;13.582;2022-12-16T18:19:32;18.00;99.90
61004;DHT22;46889;37.310;13.582;2022-12-16T18:22:17;18.00;99.90
61004;DHT22;46889;37.310;13.582;2022-12-16T18:25:07;18.00;99.90
61004;DHT22;46889;37.310;13.582;2022-12-16T18:27:51;18.00;99.90
61004;DHT22;46889;37.310;13.582;2022-12-16T18:30:42;18.00;99.90
61004;DHT22;46889;37.310;13.582;2022-12-16T18:33:26;18.00;99.90
61004;DHT22;46889;37.310;13.582;2022-12-16T18:36:11;18.00;99.90
61004;DHT22;46889;37.310;13.582;2022-12-16T18:38:55;18.00;99.90
61004;DHT22;46889;37.310;13.582;2022-12-16T18:41:41;18.00;99.90
61004;DHT22;46889;37.310;13.582;2022-12-16T18:44:25;18.00;99.90
61004;DHT22;46889;37.310;13.582;2022-12-16T18:47:29;18.00;99.90
61004;DHT22;46889;37.310;13.582;2022-12-16T18:52:49;18.00;99.90
61004;DHT22;46889;37.310;13.582;2022-12-16T18:56:05;18.00;99.90
61004;DHT22;46889;37.310;13.582;2022-12-16T18:58:51;18.00;99.90
61004;DHT22;46889;37.310;13.582;2022-12-16T19:01:39;18.00;99.90
61004;DHT22;46889;37.310;13.582;2022-12-16T19:04:27;18.00;99.90
61004;DHT22;46889;37.310;13.582;2022-12-16T19:07:11;18.00;99.90
61004;DHT22;46889;37.310;13.582;2022-12-16T19:09:55;18.00;99.90
61004;DHT22;46889;37.310;13.582;2022-12-16T19:12:59;18.00;99.90
61004;DHT22;46889;37.310;13.582;2022-12-16T19:15:55;17.90;99.90
61004;DHT22;46889;37.310;13.582;2022-12-16T19:18:40;18.00;99.90